地図

経路データ

SID SEASON NUMBER BASIN SUBBASIN NAME ISO_TIME NATURE LAT LON WMO_WIND WMO_PRES WMO_AGENCY TRACK_TYPE DIST2LAND LANDFALL IFLAG USA_AGENCY USA_ATCF_ID USA_LAT USA_LON USA_RECORD USA_STATUS USA_WIND USA_PRES USA_SSHS USA_R34_NE USA_R34_SE USA_R34_SW USA_R34_NW USA_R50_NE USA_R50_SE USA_R50_SW USA_R50_NW USA_R64_NE USA_R64_SE USA_R64_SW USA_R64_NW USA_POCI USA_ROCI USA_RMW USA_EYE TOKYO_LAT TOKYO_LON TOKYO_GRADE TOKYO_WIND TOKYO_PRES TOKYO_R50_DIR TOKYO_R50_LONG TOKYO_R50_SHORT TOKYO_R30_DIR TOKYO_R30_LONG TOKYO_R30_SHORT TOKYO_LAND CMA_LAT CMA_LON CMA_CAT CMA_WIND CMA_PRES HKO_LAT HKO_LON HKO_CAT HKO_WIND HKO_PRES NEWDELHI_LAT NEWDELHI_LON NEWDELHI_GRADE NEWDELHI_WIND NEWDELHI_PRES NEWDELHI_CI NEWDELHI_DP NEWDELHI_POCI REUNION_LAT REUNION_LON REUNION_TYPE REUNION_WIND REUNION_PRES REUNION_TNUM REUNION_CI REUNION_RMW REUNION_R34_NE REUNION_R34_SE REUNION_R34_SW REUNION_R34_NW REUNION_R50_NE REUNION_R50_SE REUNION_R50_SW REUNION_R50_NW REUNION_R64_NE REUNION_R64_SE REUNION_R64_SW REUNION_R64_NW BOM_LAT BOM_LON BOM_TYPE BOM_WIND BOM_PRES BOM_TNUM BOM_CI BOM_RMW BOM_R34_NE BOM_R34_SE BOM_R34_SW BOM_R34_NW BOM_R50_NE BOM_R50_SE BOM_R50_SW BOM_R50_NW BOM_R64_NE BOM_R64_SE BOM_R64_SW BOM_R64_NW BOM_ROCI BOM_POCI BOM_EYE BOM_POS_METHOD BOM_PRES_METHOD NADI_LAT NADI_LON NADI_CAT NADI_WIND NADI_PRES WELLINGTON_LAT WELLINGTON_LON WELLINGTON_WIND WELLINGTON_PRES DS824_LAT DS824_LON DS824_STAGE DS824_WIND DS824_PRES TD9636_LAT TD9636_LON TD9636_STAGE TD9636_WIND TD9636_PRES TD9635_LAT TD9635_LON TD9635_WIND TD9635_PRES TD9635_ROCI NEUMANN_LAT NEUMANN_LON NEUMANN_CLASS NEUMANN_WIND NEUMANN_PRES MLC_LAT MLC_LON MLC_CLASS MLC_WIND MLC_PRES USA_GUST BOM_GUST BOM_GUST_PER REUNION_GUST REUNION_GUST_PER USA_SEAHGT USA_SEARAD_NE USA_SEARAD_SE USA_SEARAD_SW USA_SEARAD_NW STORM_SPEED STORM_DIR
1917121N10084 1917 22 NI BB NOT_NAMED 1917-05-01 00:00:00 TS 9.90000 83.5000 main 285 285 _________O____ -1 9.90000 83.5000 TC 34 5 349
1917121N10084 1917 22 NI BB NOT_NAMED 1917-05-01 03:00:00 TS 10.1333 83.4600 main 297 297 _________PO___ -1 10.2500 83.4400 TC 36 9.90000 83.5000 2 6 354
1917121N10084 1917 22 NI BB NOT_NAMED 1917-05-01 06:00:00 TS 10.4743 83.4373 main 314 314 _________OP___ -1 10.6000 83.4000 TC 39 10.2858 83.4931 2 7 357
1917121N10084 1917 22 NI BB NOT_NAMED 1917-05-01 09:00:00 TS 10.8246 83.4296 main 330 330 _________PP___ -1 10.9500 83.3925 TC 42 10.6574 83.4790 2 7 358
1917121N10084 1917 22 NI BB NOT_NAMED 1917-05-01 12:00:00 TS 11.1501 83.4252 main 355 355 _________OP___ -1 11.3000 83.4000 TC 45 11.0002 83.4504 2 7 357
1917121N10084 1917 22 NI BB NOT_NAMED 1917-05-01 15:00:00 TS 11.4713 83.4000 main 365 356 _________PO___ -1 11.6425 83.4000 TC 49 11.3000 83.4000 3 6 355
1917121N10084 1917 22 NI BB NOT_NAMED 1917-05-01 18:00:00 TS 11.7791 83.3647 main 356 341 _________OP___ -1 12.0000 83.4000 TC 54 11.5582 83.3293 3 6 353
1917121N10084 1917 22 NI BB NOT_NAMED 1917-05-01 21:00:00 TS 12.0675 83.3154 main 339 336 _________PP___ -1 12.2950 83.3555 TC 59 11.8401 83.2752 3 7 0
1917121N10084 1917 22 NI BB NOT_NAMED 1917-05-02 00:00:00 TS 12.5134 83.3417 main 336 336 _________OP___ -1 12.8000 83.4000 TC 64 12.2269 83.2834 3 12 9
1917121N10084 1917 22 NI BB NOT_NAMED 1917-05-02 03:00:00 TS 13.2763 83.5126 main 346 313 _________PO___ -1 13.7525 83.6251 TC 64 12.8000 83.4000 4 19 15
1917121N10084 1917 22 NI BB NOT_NAMED 1917-05-02 06:00:00 TS 14.2985 83.8395 main 303 249 _________OP___ -1 14.9000 84.0000 TC 64 13.6970 83.6791 4 22 19
1917121N10084 1917 22 NI BB NOT_NAMED 1917-05-02 09:00:00 TS 15.3805 84.2735 main 252 208 _________PP___ -1 15.9876 84.4772 TC 64 14.7734 84.0699 4 23 22
1917121N10084 1917 22 NI BB NOT_NAMED 1917-05-02 12:00:00 TS 16.4565 84.7631 main 208 153 _________OP___ -1 17.0000 85.0000 TC 64 15.9130 84.5262 4 22 24
1917121N10084 1917 22 NI BB NOT_NAMED 1917-05-02 15:00:00 TS 17.4187 85.2328 main 153 125 _________PO___ -1 17.8373 85.4656 TC 64 17.0000 85.0000 4 20 26
1917121N10084 1917 22 NI BB NOT_NAMED 1917-05-02 18:00:00 TS 18.2481 85.6810 main 134 94 _________OP___ -1 18.6000 85.9000 TC 64 17.8962 85.4621 4 19 27
1917121N10084 1917 22 NI BB NOT_NAMED 1917-05-02 21:00:00 TS 19.0713 86.1308 main 84 24 _________PP___ -1 19.4225 86.3374 TC 64 18.7201 85.9241 4 18 27
1917121N10084 1917 22 NI BB NOT_NAMED 1917-05-03 00:00:00 TS 19.8419 86.5246 main 24 0 _________OP___ -1 20.2000 86.7000 TC 64 19.4839 86.3492 4 16 24
1917121N10084 1917 22 NI BB NOT_NAMED 1917-05-03 03:00:00 TS 20.5362 86.8227 main 0 0 _________PO___ -1 20.8723 86.9455 TC 55 20.2000 86.7000 4 15 19
1917121N10084 1917 22 NI BB NOT_NAMED 1917-05-03 06:00:00 TS 21.2084 87.0294 main 15 0 _________OP___ -1 21.5000 87.1000 TC 47 20.9167 86.9589 4 14 14
1917121N10084 1917 22 NI BB NOT_NAMED 1917-05-03 09:00:00 TS 21.8808 87.1833 main 0 0 _________PP___ -1 22.1725 87.2301 TC 38 21.5891 87.1365 4 13 10
1917121N10084 1917 22 NI BB NOT_NAMED 1917-05-03 12:00:00 TS 22.5085 87.2729 main 0 0 _________OP___ -1 22.8000 87.3000 TC 30 22.2170 87.2458 4 12 6
1917121N10084 1917 22 NI BB NOT_NAMED 1917-05-03 15:00:00 TS 23.0612 87.3113 main 0 0 _________PO___ -1 23.3225 87.3226 TC 30 22.8000 87.3000 1 10 2
1917121N10084 1917 22 NI BB NOT_NAMED 1917-05-03 18:00:00 TS 23.5370 87.3069 main 0 0 _________OP___ -1 23.8000 87.3000 TC 30 23.3397 87.3120 1 10 358
1917121N10084 1917 22 NI BB NOT_NAMED 1917-05-03 21:00:00 TS 24.0242 87.2775 main 0 0 _________PP___ -1 24.2925 87.2551 TC 30 23.8454 87.2925 1 10 356
1917121N10084 1917 22 NI BB NOT_NAMED 1917-05-04 00:00:00 TS 24.4856 87.2345 main 0 0 _________OP___ -1 24.8000 87.2000 TC 30 24.3284 87.2517 1 8 355
1917121N10084 1917 22 NI BB NOT_NAMED 1917-05-04 03:00:00 NR 24.8000 87.2000 main 0 __________O___ -1 TC 24.8000 87.2000 1 6 353

IBTrACS Databaseについて

本データベースは、米国NOAAが公開する1842年以降の世界の熱帯低気圧のベストトラックデータアーカイブInternational Best Track Archive for Climate Stewardship (IBTrACS)を、ウェブで閲覧しやすい形式に変換したものです。

最終更新日:2021-10-08